• Join FlightAware (Why Join?)
  • Login
  • US Flag 
12:40AM EDT


 

Airport Tracker/Info


-or-


 

Live Flight TrackerFlight Track Log ✈ AWE1940 ✈ 26-Apr-2013 ✈ KCLT - KALB

Flight Track Log - Related Links

Times and Time Zones

All times are in EDT time to prevent confusion due to time zone crossing. See the AWE1940 flight status page for this flight to view local times or setup timezone preferences in your user account.

Time Position Orientation Groundspeed Altitude Reporting Facility
EDT Latitude Longitude Course Direction KTS MPH feet Rate Location/Type
10:24PM 35.1972 -80.9381 72° East 167 192 1,400  Level Atlanta Center
10:26PM 35.1419 -80.8969 149° Southeast 227 261 4,100 2,100 Climbing Atlanta Center
10:27PM 35.1769 -80.8067 65° Northeast 283 326 6,700 2,580 Climbing Atlanta Center
10:28PM 35.2103 -80.7214 64° Northeast 288 331 9,800 2,160 Climbing Atlanta Center
10:29PM 35.3167 -80.4678 90° East  Level FlightAware Approximate
10:29PM 35.2472 -80.6208 66° East 304 350 11,100  Level Atlanta Center
10:30PM 35.3635 -80.3523 72° East  Level FlightAware Approximate
10:30PM 35.2919 -80.5094 64° Northeast 344 396 13,800  Level Atlanta Center
10:31PM 35.3406 -80.3828 65° Northeast 357 411 16,100 2,100 Climbing Atlanta Center
10:33PM 35.4169 -80.1847 65° Northeast 397 457 19,300 1,800 Climbing Washington Center
10:34PM 35.4506 -80.0669 71° East 397 457 20,900 1,680 Climbing Washington Center
10:35PM 35.4917 -79.9161 71° East 404 465 22,800 1,680 Climbing Washington Center
10:36PM 35.5258 -79.7750 73° East 415 478 24,300 1,080 Climbing Washington Center
10:37PM 35.5644 -79.6264 72° East 434 499 25,000 900 Climbing Washington Center
10:38PM 35.6025 -79.4800 72° East 474 545 26,200 1,140 Climbing Washington Center
10:39PM 35.6600 -79.3167 67° East 474 545 27,300 1,260 Climbing Washington Center
10:40PM 35.7228 -79.1689 62° Northeast 474 545 28,800 1,680 Climbing Washington Center
10:41PM 35.7814 -79.0228 64° Northeast 474 545 30,700 1,080 Climbing Washington Center
10:42PM 35.8397 -78.8742 64° Northeast 474 545 31,000 120 Climbing Washington Center
10:43PM 35.9000 -78.7306 63° Northeast 474 545 31,000  Level Washington Center
10:44PM 35.9683 -78.5947 58° Northeast 469 540 31,000  Level Washington Center
10:45PM 36.0342 -78.4558 60° Northeast 469 540 31,000  Level Washington Center
10:46PM 36.1022 -78.3144 59° Northeast 469 540 31,000  Level Washington Center
10:47PM 36.1700 -78.1753 59° Northeast 469 540 31,000  Level Washington Center
10:48PM 36.2356 -78.0358 60° Northeast 469 540 31,000  Level Washington Center
10:49PM 36.3031 -77.8936 59° Northeast 469 540 31,000  Level Washington Center
10:50PM 36.3681 -77.7536 60° Northeast 469 540 31,000  Level Washington Center
10:51PM 36.4353 -77.6108 60° Northeast 469 540 31,000  Level Washington Center
10:52PM 36.5003 -77.4703 60° Northeast 469 540 31,000  Level Washington Center
10:53PM 36.5669 -77.3272 60° Northeast 464 534 31,000  Level Washington Center
10:54PM 36.6336 -77.1839 60° Northeast 469 540 31,000  Level Washington Center
10:55PM 36.7044 -77.0453 57° Northeast 469 540 31,000  Level Washington Center
10:56PM 36.7953 -76.9356 44° Northeast 464 534 31,000  Level Washington Center
10:57PM 36.9006 -76.8439 35° Northeast 448 516 31,000  Level Washington Center
10:58PM 36.9933 -76.7622 35° Northeast 448 516 31,000  Level Washington Center
10:59PM 37.0900 -76.6697 37° Northeast 448 516 31,000  Level Washington Center
11:00PM 37.1931 -76.5775 35° Northeast 448 516 31,000  Level Washington Center
11:01PM 37.2939 -76.4872 35° Northeast 448 516 31,000  Level Washington Center
11:02PM 37.3947 -76.3969 35° Northeast 448 516 31,000 -60 Level Washington Center
11:03PM 37.4933 -76.3039 37° Northeast 442 509 30,900 -60 Descending Washington Center
11:04PM 37.5897 -76.2156 36° Northeast 437 503 30,900  Level Washington Center
11:05PM 37.7006 -76.1194 34° Northeast 437 503 30,900  Level Washington Center
11:06PM 37.7886 -76.0306 39° Northeast 437 503 31,000  Climbing Washington Center
11:07PM 37.8869 -75.9417 35° Northeast 437 503 31,000  Level Washington Center
11:08PM 37.9956 -75.8367 37° Northeast 437 503 31,000  Level Washington Center
11:09PM 38.0939 -75.7475 36° Northeast 437 503 31,000  Level Washington Center
11:10PM 38.1919 -75.6525 37° Northeast 432 497 31,000  Level Washington Center
11:11PM 38.2919 -75.5600 36° Northeast 438 504 31,000 -60 Level Washington Center
11:12PM 38.3983 -75.4883 28° Northeast 432 497 30,900 180 Descending Washington Center
11:13PM 38.5128 -75.4458 16° North 422 486 31,400 960 Climbing Washington Center
11:14PM 38.6233 -75.3950 20° North 417 480 32,900 720 Climbing Washington Center
11:15PM 38.7358 -75.3494 18° North 417 480 32,900 780 Level Washington Center
11:16PM 38.8442 -75.3039 18° North 417 480 34,500 960 Climbing Washington Center
11:17PM 38.9525 -75.2606 17° North 406 467 34,900 180 Climbing Washington Center
11:18PM 39.0647 -75.2147 18° North 406 467 34,900  Level Washington Center
11:19PM 39.1731 -75.1658 19° North 406 467 34,900  Level Washington Center
11:20PM 39.2853 -75.1089 21° North 412 474 34,900  Level Washington Center
11:21PM 39.3933 -75.0222 32° Northeast 425 489 35,000  Climbing Washington Center
11:22PM 39.4950 -74.9192 38° Northeast 452 520 35,000 -60 Level Washington Center
11:23PM 39.6542 -74.7642 37° Northeast 454 522 34,900 -60 Descending New York Center
11:24PM 39.7533 -74.6644 38° Northeast 449 517 34,900  Level New York Center
11:25PM 39.8544 -74.5647 37° Northeast 454 522 34,900  Level New York Center
11:26PM 39.9536 -74.4672 37° Northeast 454 522 34,900  Level New York Center
11:27PM 40.0528 -74.3614 39° Northeast 454 522 35,000  Climbing New York Center
11:28PM 40.1558 -74.2581 37° Northeast 454 522 34,900 -120 Descending New York Center
11:29PM 40.2567 -74.1569 37° Northeast 454 522 34,800 -600 Descending New York Center
11:30PM 40.3675 -74.0781 28° Northeast 454 522 33,800 -1,800 Descending New York Center
11:31PM 40.4814 -74.0208 21° North 436 502 31,200 -2,640 Descending New York Center
11:32PM 40.5956 -73.9661 20° North 436 502 28,500 -2,700 Descending New York Center
11:34PM 40.7656 -73.8814 21° North 438 504 24,300 -1,800 Descending Boston Center
11:35PM 40.8586 -73.7792 40° Northeast 423 487 23,900 -480 Descending Boston Center
11:36PM 40.9517 -73.6631 43° Northeast 423 487 23,400 -540 Descending Boston Center
11:37PM 41.0586 -73.6072 21° North 418 481 22,900 -300 Descending Boston Center
11:38PM 41.1667 -73.6258 353° North 378 435 22,900 -120 Level Boston Center
11:39PM 41.2769 -73.6417 354° North 378 435 22,700 -600 Descending Boston Center
11:40PM 41.3850 -73.6603 353° North 384 442 21,700 -960 Descending Boston Center
11:41PM 41.4892 -73.6789 352° North 384 442 20,800 -840 Descending Boston Center
11:42PM 41.5931 -73.7003 351° North 384 442 20,100 -960 Descending Boston Center
11:43PM 41.6972 -73.7161 354° North 384 442 18,900 -1,200 Descending Boston Center
11:44PM 41.7969 -73.7350 352° North 368 423 17,800 -780 Descending Boston Center
11:45PM 41.8967 -73.7508 353° North 363 418 17,400 -1,200 Descending Boston Center
11:46PM 41.9944 -73.7697 352° North 363 418 15,400 -2,520 Descending Boston Center
11:46PM 42.0278 -73.7761 352° North 353 406 14,000 -3,600 Descending Boston Center
11:47PM 42.0925 -73.7747 North 358 412 11,800 -3,000 Descending Boston Center
11:47PM 42.1278 -73.7781 356° North 348 400 11,000 -900 Descending Boston Center
11:48PM 42.1861 -73.7767 North 336 387 10,900 -540 Descending Boston Center
11:48PM 42.2153 -73.7828 351° North 307 353 10,500 -1,800 Descending Boston Center
11:49PM 42.2653 -73.7811 North 302 348 9,100 -2,400 Descending Boston Center
11:49PM 42.2967 -73.7872 352° North 266 306 8,100 -1,920 Descending Boston Center
11:50PM 42.3425 -73.7856 North 277 319 7,200 -1,380 Descending Boston Center
11:50PM 42.3736 -73.7861 359° North 271 312 6,700 -1,320 Descending Boston Center
11:51PM 42.4153 -73.7900 356° North 267 307 5,900 -1,500 Descending Boston Center
11:51PM 42.4444 -73.7933 355° North 260 299 5,200 -1,740 Descending Boston Center
11:52PM 42.4861 -73.7914 North 261 300 4,200 -1,500 Descending Boston Center
11:52PM 42.5153 -73.7950 355° North 251 289 3,700 -1,140 Descending Boston Center
11:53PM 42.5550 -73.7958 359° North 250 288 3,100 -1,080 Descending Boston Center